createdAt,value
2019-01-08T00:02:04.800Z,100351.73
2019-01-08T00:07:08.365Z,100345.25
2019-01-08T00:12:11.677Z,100332.96
2019-01-08T00:17:14.661Z,100310.48
2019-01-08T00:22:17.879Z,100292.81
2019-01-08T00:27:21.635Z,100293.67
2019-01-08T00:32:25.161Z,100267.27
2019-01-08T00:37:30.292Z,100246.00
2019-01-08T00:42:33.465Z,100243.16
2019-01-08T00:47:36.980Z,100218.45
2019-01-08T00:52:40.328Z,100210.06
2019-01-08T00:57:44.425Z,100198.09
2019-01-08T01:02:48.176Z,100180.66
2019-01-08T01:07:51.091Z,100199.87
2019-01-08T01:12:54.095Z,100188.17
2019-01-08T01:17:57.618Z,100109.03
2019-01-08T01:23:00.809Z,100137.88
2019-01-08T01:28:03.813Z,100128.71
2019-01-08T01:33:07.101Z,100096.38
2019-01-08T01:38:10.447Z,100093.53
2019-01-08T01:43:13.852Z,100107.91
2019-01-08T01:48:17.174Z,100089.67
2019-01-08T01:53:20.395Z,100075.84
2019-01-08T01:58:24.006Z,100058.61
2019-01-08T02:03:26.552Z,100042.78
2019-01-08T02:08:29.788Z,100016.45
2019-01-08T02:13:33.000Z,100012.69
2019-01-08T02:24:57.357Z,99987.22
2019-01-08T02:30:00.884Z,99964.60
2019-01-08T02:35:04.184Z,99935.19
2019-01-08T02:46:28.324Z,99917.11
2019-01-08T02:51:31.104Z,99889.31
2019-01-08T02:56:33.719Z,99905.33
2019-01-08T03:01:36.075Z,99862.70
2019-01-08T03:06:38.998Z,99865.20
2019-01-08T03:11:41.398Z,99817.73
2019-01-08T03:16:43.785Z,99803.63
2019-01-08T03:21:46.764Z,99776.73
2019-01-08T03:26:49.291Z,99761.81
2019-01-08T03:31:52.269Z,99751.45
2019-01-08T03:36:53.925Z,99751.69
2019-01-08T03:41:56.239Z,99740.71
2019-01-08T03:46:58.951Z,99693.78
2019-01-08T03:52:01.536Z,99690.08
2019-01-08T03:57:04.008Z,99623.31
2019-01-08T04:02:06.430Z,99658.71
2019-01-08T04:07:09.212Z,99647.96
2019-01-08T04:12:11.816Z,99627.90
2019-01-08T04:17:14.711Z,99582.77
2019-01-08T04:22:17.110Z,99580.06
2019-01-08T04:27:19.458Z,99575.30
2019-01-08T04:32:22.462Z,99550.98
2019-01-08T04:37:25.414Z,99552.01
2019-01-08T04:42:27.690Z,99524.69
2019-01-08T04:47:30.376Z,99508.58
2019-01-08T04:52:33.014Z,99485.77
2019-01-08T04:57:36.101Z,99473.08
2019-01-08T05:02:38.717Z,99461.50
2019-01-08T05:07:40.989Z,99452.16
2019-01-08T05:12:43.066Z,99435.19
2019-01-08T05:17:46.061Z,99406.91
2019-01-08T05:22:48.762Z,99404.05
2019-01-08T05:27:51.052Z,99385.84
2019-01-08T05:32:53.327Z,99391.22
2019-01-08T05:37:55.622Z,99375.76
2019-01-08T05:42:58.219Z,99371.94
2019-01-08T05:48:01.196Z,99346.88
2019-01-08T05:53:03.862Z,99363.98
2019-01-08T05:58:06.307Z,99339.08
2019-01-08T06:03:08.931Z,99348.60
2019-01-08T06:08:12.001Z,99350.99
2019-01-08T06:13:14.716Z,99331.41
2019-01-08T06:18:17.447Z,99331.92
2019-01-08T06:23:20.117Z,99322.80
2019-01-08T06:28:22.399Z,99288.42
2019-01-08T06:33:24.595Z,99297.47
2019-01-08T06:38:26.982Z,99280.39
2019-01-08T06:43:29.860Z,99273.98
2019-01-08T06:48:32.776Z,99276.59
2019-01-08T06:53:35.747Z,99269.09
2019-01-08T06:58:38.491Z,99270.24
2019-01-08T07:03:41.454Z,99247.36
2019-01-08T07:08:43.789Z,99251.93
2019-01-08T07:13:46.497Z,99278.28
2019-01-08T07:18:48.884Z,99252.05
2019-01-08T07:23:51.584Z,99251.91
2019-01-08T07:28:54.075Z,99270.64
2019-01-08T07:33:56.907Z,99266.23
2019-01-08T07:38:58.957Z,99284.17
2019-01-08T07:44:01.716Z,99276.16
2019-01-08T07:49:04.129Z,99283.74
2019-01-08T07:54:06.766Z,99292.16
2019-01-08T07:59:09.321Z,99312.61
2019-01-08T08:04:11.310Z,99317.51
2019-01-08T08:09:13.952Z,99328.03
2019-01-08T08:14:16.798Z,99325.77
2019-01-08T08:19:18.799Z,99323.73
2019-01-08T08:24:21.387Z,99340.61
2019-01-08T08:29:23.749Z,99353.92
2019-01-08T08:34:26.387Z,99358.78
2019-01-08T08:39:28.770Z,99361.88
2019-01-08T08:44:31.108Z,99362.78
2019-01-08T08:49:33.438Z,99375.78
2019-01-08T08:54:36.081Z,99389.45
2019-01-08T08:59:38.112Z,99388.00
2019-01-08T09:04:40.873Z,99405.70
2019-01-08T09:09:43.892Z,99422.03
2019-01-08T09:14:46.809Z,99442.63
2019-01-08T09:19:49.462Z,99447.92
2019-01-08T09:24:52.120Z,99464.88
2019-01-08T09:29:54.985Z,99461.17
2019-01-08T09:34:56.699Z,99480.01
2019-01-08T09:39:59.578Z,99484.90
2019-01-08T09:45:02.209Z,99498.13
2019-01-08T09:50:05.357Z,99517.34
2019-01-08T09:55:07.888Z,99518.72
2019-01-08T10:00:10.949Z,99530.91
2019-01-08T10:05:13.152Z,99533.80
2019-01-08T10:10:15.744Z,99536.58
2019-01-08T10:15:18.481Z,99540.16
2019-01-08T10:20:20.956Z,99538.34
2019-01-08T10:25:23.881Z,99537.22
2019-01-08T10:30:26.313Z,99548.19
2019-01-08T10:35:28.657Z,99553.89
2019-01-08T10:40:30.965Z,99563.44
2019-01-08T10:45:34.505Z,99559.98
2019-01-08T10:50:36.666Z,99560.54
2019-01-08T10:55:38.941Z,99563.78
2019-01-08T11:00:41.335Z,99571.11
2019-01-08T11:05:44.001Z,99576.09
2019-01-08T11:10:46.722Z,99578.20
2019-01-08T11:15:49.429Z,99581.86
2019-01-08T11:20:51.437Z,99575.39
2019-01-08T11:25:54.150Z,99593.17
2019-01-08T11:30:57.084Z,99579.20
2019-01-08T11:35:59.509Z,99582.34
2019-01-08T11:41:01.891Z,99588.28
2019-01-08T11:46:04.861Z,99591.05
2019-01-08T11:51:06.897Z,99587.58
2019-01-08T11:56:09.643Z,99593.27
2019-01-08T12:01:12.238Z,99593.95
2019-01-08T12:06:14.676Z,99594.98
2019-01-08T12:11:18.585Z,99608.38
2019-01-08T12:16:20.985Z,99613.91
2019-01-08T12:21:24.100Z,99629.51
2019-01-08T12:26:27.051Z,99632.55
2019-01-08T12:31:29.489Z,99640.89
2019-01-08T12:36:32.207Z,99642.96
2019-01-08T12:41:35.261Z,99647.33
2019-01-08T12:46:37.882Z,99661.47
2019-01-08T12:51:40.590Z,99661.23
2019-01-08T12:56:43.559Z,99670.68
2019-01-08T13:01:46.946Z,99686.50
2019-01-08T13:06:49.300Z,99684.02
2019-01-08T13:11:52.192Z,99712.14
2019-01-08T13:16:54.184Z,99701.22
2019-01-08T13:21:56.266Z,99700.77
2019-01-08T13:26:59.367Z,99712.38
2019-01-08T13:32:02.260Z,99706.86
2019-01-08T13:37:05.049Z,99719.22
2019-01-08T13:42:07.989Z,99724.50
2019-01-08T13:47:10.962Z,99735.91
2019-01-08T13:52:14.004Z,99744.14
2019-01-08T13:57:16.477Z,99757.06
2019-01-08T14:02:18.959Z,99758.61
2019-01-08T14:07:21.353Z,99770.43
2019-01-08T14:12:23.868Z,99759.08
2019-01-08T14:17:26.668Z,99772.79
2019-01-08T14:22:29.599Z,99775.55
2019-01-08T14:27:32.364Z,99781.03
2019-01-08T14:32:40.523Z,99783.01
2019-01-08T14:37:40.347Z,99792.28
2019-01-08T14:42:42.473Z,99790.08
2019-01-08T14:47:45.000Z,99802.47
2019-01-08T14:52:47.354Z,99801.55
2019-01-08T14:57:50.274Z,99811.63
2019-01-08T15:02:53.196Z,99812.06
2019-01-08T15:07:56.165Z,99829.61
2019-01-08T15:12:59.303Z,99835.63
2019-01-08T15:18:02.328Z,99844.14
2019-01-08T15:23:05.314Z,99846.59
2019-01-08T15:28:08.405Z,99854.83
2019-01-08T15:33:10.891Z,99864.00
2019-01-08T15:38:13.009Z,99871.87
2019-01-08T15:43:15.394Z,99872.05
2019-01-08T15:48:17.777Z,99887.55
2019-01-08T15:53:20.153Z,99884.07
2019-01-08T15:58:22.873Z,99882.49
2019-01-08T16:03:25.532Z,99887.95
2019-01-08T16:08:28.204Z,99900.90
2019-01-08T16:13:30.644Z,99905.65
2019-01-08T16:18:33.456Z,99905.39
2019-01-08T16:23:36.332Z,99909.05
2019-01-08T16:28:39.078Z,99923.22
2019-01-08T16:33:42.169Z,99924.66
2019-01-08T16:38:45.269Z,99933.79
2019-01-08T16:43:47.813Z,99940.65
2019-01-08T16:48:50.890Z,99948.60
2019-01-08T16:53:53.964Z,99949.33
2019-01-08T16:58:56.684Z,99957.38
2019-01-08T17:03:59.267Z,99965.11
2019-01-08T17:09:02.361Z,99974.58
2019-01-08T17:14:05.053Z,99980.05
2019-01-08T17:19:07.747Z,99969.87
2019-01-08T17:24:10.160Z,99988.42
2019-01-08T17:29:13.220Z,99989.53
2019-01-08T17:34:16.022Z,99996.06
2019-01-08T17:39:18.670Z,100002.03
2019-01-08T17:44:20.857Z,100007.63
2019-01-08T17:49:23.826Z,100011.93
2019-01-08T17:54:26.892Z,100006.31
2019-01-08T17:59:29.771Z,100020.50
2019-01-08T18:04:32.281Z,100032.22
2019-01-08T18:09:35.395Z,100022.23
2019-01-08T18:14:38.292Z,100028.23
2019-01-08T18:19:41.752Z,100035.55
2019-01-08T18:24:46.764Z,100046.47
2019-01-08T18:29:49.243Z,100039.71
2019-01-08T18:34:52.403Z,100045.77
2019-01-08T18:39:55.687Z,100050.39
2019-01-08T18:44:59.283Z,100040.78
2019-01-08T18:50:01.570Z,100054.25
2019-01-08T18:55:03.873Z,100071.81
2019-01-08T19:00:06.818Z,100068.20
2019-01-08T19:05:10.085Z,100073.90
2019-01-08T19:10:14.204Z,100089.61
2019-01-08T19:15:16.824Z,100095.90
2019-01-08T19:20:21.782Z,100093.63
2019-01-08T19:25:26.040Z,100108.71
2019-01-08T19:30:29.784Z,100111.86
2019-01-08T19:35:35.403Z,100110.79
2019-01-08T19:40:41.350Z,100125.94
2019-01-08T19:45:46.560Z,100127.31
2019-01-08T19:50:51.964Z,100129.73
2019-01-08T19:55:58.066Z,100128.59
2019-01-08T20:01:03.623Z,100128.70
2019-01-08T20:06:09.449Z,100133.41
2019-01-08T20:11:15.596Z,100143.20
2019-01-08T20:16:20.334Z,100141.27
2019-01-08T20:21:23.789Z,100154.40
2019-01-08T20:26:28.235Z,100137.12
2019-01-08T20:31:31.866Z,100158.58
2019-01-08T20:36:37.717Z,100169.81
2019-01-08T20:41:41.356Z,100163.98
2019-01-08T20:46:47.446Z,100175.55
2019-01-08T20:51:50.772Z,100174.56
2019-01-08T20:56:54.448Z,100189.54
2019-01-08T21:01:57.870Z,100185.49
2019-01-08T21:07:01.098Z,100198.20
2019-01-08T21:12:04.504Z,100204.86
2019-01-08T21:17:07.625Z,100220.48
2019-01-08T21:22:11.584Z,100211.16
2019-01-08T21:27:15.626Z,100222.17
2019-01-08T21:32:18.792Z,100218.54
2019-01-08T21:37:21.691Z,100222.73
2019-01-08T21:42:24.401Z,100227.34
2019-01-08T21:47:27.043Z,100235.63
2019-01-08T21:52:30.237Z,100233.63
2019-01-08T21:57:33.291Z,100238.31
2019-01-08T22:02:36.167Z,100240.28
2019-01-08T22:07:39.347Z,100239.56
2019-01-08T22:12:42.419Z,100252.09
2019-01-08T22:17:45.562Z,100250.01
2019-01-08T22:22:52.619Z,100258.28
2019-01-08T22:27:52.729Z,100259.27
2019-01-08T22:32:55.897Z,100265.18
2019-01-08T22:38:25.127Z,100272.48
2019-01-08T22:43:53.108Z,100281.03
2019-01-08T22:48:58.943Z,100276.23
2019-01-08T22:54:03.981Z,100290.38
2019-01-08T22:59:09.171Z,100285.45
2019-01-08T23:04:27.288Z,100285.31
2019-01-08T23:09:34.108Z,100295.48
2019-01-08T23:14:39.700Z,100299.28
2019-01-08T23:19:44.654Z,100276.56
2019-01-08T23:24:48.864Z,100317.25
2019-01-08T23:29:51.488Z,100314.45
2019-01-08T23:34:58.478Z,100320.09
2019-01-08T23:40:05.034Z,100318.50
2019-01-08T23:45:13.054Z,100337.05
2019-01-08T23:50:16.460Z,100344.80
2019-01-08T23:55:22.047Z,100342.69
